Time;durP1;ratioP1;P1;durP2;ratioP2;P2;SDS_P1;SDS_P2;PMS_P1;PMS_P2;Temp;Humidity;BMP_temperature;BMP_pressure;BME280_temperature;BME280_humidity;BME280_pressure;Samples;Min_cycle;Max_cycle;Signal;HPM_P1;HPM_P2
2022/09/20 00:00:12;;;;;;;1.87;0.80;;;;;;;10.82;100.00;100126.10;2794352;83;21351;-90
2022/09/20 00:04:13;;;;;;;1.47;0.82;;;;;;;10.82;100.00;100129.27;2770320;84;21596;-91
2022/09/20 00:08:15;;;;;;;1.10;1.02;;;;;;;10.81;100.00;100119.59;2791604;83;21046;-90
2022/09/20 00:12:16;;;;;;;0.70;0.70;;;;;;;10.84;100.00;100122.81;2768446;84;21018;-89
2022/09/20 00:16:28;;;;;;;4.67;0.95;;;;;;;10.87;100.00;100129.70;2773878;84;21103;-91
2022/09/20 00:20:29;;;;;;;6.80;1.47;;;;;;;10.84;100.00;100129.98;2786853;85;21746;-90
2022/09/20 00:24:31;;;;;;;3.08;1.25;;;;;;;10.79;100.00;100130.83;2773432;85;21008;-88
2022/09/20 00:28:33;;;;;;;5.10;1.50;;;;;;;10.76;100.00;100123.97;2738893;85;21010;-90
2022/09/20 00:32:34;;;;;;;5.87;1.65;;;;;;;10.66;100.00;100131.89;2769746;85;21041;-89
2022/09/20 00:36:36;;;;;;;2.15;1.15;;;;;;;10.64;100.00;100140.97;2785813;85;21112;-90
2022/09/20 00:40:37;;;;;;;3.05;0.85;;;;;;;10.73;100.00;100138.02;2730698;85;21089;-90
2022/09/20 00:45:06;;;;;;;1.85;0.80;;;;;;;10.77;100.00;100142.09;2649122;85;21056;-90
2022/09/20 00:49:18;;;;;;;3.83;1.20;;;;;;;10.86;100.00;100143.98;2748099;84;21070;-90
2022/09/20 00:53:33;;;;;;;2.72;1.17;;;;;;;10.90;100.00;100140.08;2723056;86;21046;-91
2022/09/20 00:57:37;;;;;;;3.20;1.45;;;;;;;10.91;100.00;100137.78;2727480;85;21081;-90
2022/09/20 01:01:38;;;;;;;4.37;1.75;;;;;;;10.91;100.00;100136.45;2730181;85;21644;-90
2022/09/20 01:05:41;;;;;;;3.65;0.90;;;;;;;10.91;100.00;100130.30;2730830;85;21001;-91
2022/09/20 01:09:42;;;;;;;2.35;1.60;;;;;;;10.80;100.00;100132.05;2721853;86;21030;-90
2022/09/20 01:13:43;;;;;;;2.17;1.20;;;;;;;10.68;100.00;100135.27;2732584;85;21484;-91
2022/09/20 01:17:49;;;;;;;1.35;1.12;;;;;;;10.62;100.00;100147.77;2700734;85;21046;-91
2022/09/20 01:21:51;;;;;;;4.30;1.07;;;;;;;10.48;100.00;100140.09;2709102;85;21117;-91
2022/09/20 01:26:24;;;;;;;2.08;1.02;;;;;;;10.44;100.00;100142.16;2681591;85;21041;-90
2022/09/20 01:30:30;;;;;;;1.37;1.12;;;;;;;10.34;100.00;100147.38;2707599;85;21576;-89
2022/09/20 01:34:46;;;;;;;1.55;1.45;;;;;;;10.45;100.00;100142.52;2696894;87;21081;-90
2022/09/20 01:39:26;;;;;;;6.42;2.15;;;;;;;10.55;100.00;100141.26;2772731;83;21021;-90
2022/09/20 01:43:52;;;;;;;2.95;1.50;;;;;;;10.51;100.00;100138.51;2722917;85;22144;-91
2022/09/20 01:48:09;;;;;;;5.85;2.25;;;;;;;10.45;100.00;100143.02;2693293;87;20989;-86
2022/09/20 01:52:58;;;;;;;2.25;1.42;;;;;;;10.36;100.00;100141.44;2731002;85;21554;-89
2022/09/20 01:57:26;;;;;;;2.65;1.65;;;;;;;10.40;100.00;100144.70;2736690;85;21133;-89
2022/09/20 02:01:54;;;;;;;2.12;2.00;;;;;;;10.36;100.00;100136.13;2735069;85;21561;-89
2022/09/20 02:06:22;;;;;;;2.40;1.50;;;;;;;10.38;100.00;100142.15;2716275;85;21022;-89
2022/09/20 02:10:43;;;;;;;1.27;1.17;;;;;;;10.45;100.00;100143.02;2724570;85;21042;-90
2022/09/20 02:14:50;;;;;;;1.87;1.37;;;;;;;10.43;100.00;100149.78;2729604;85;21740;-89
2022/09/20 02:19:38;;;;;;;2.55;1.10;;;;;;;10.43;100.00;100151.97;2790938;83;21017;-90
2022/09/20 02:24:00;;;;;;;3.87;1.60;;;;;;;10.55;100.00;100153.23;2696942;86;21073;-90
2022/09/20 02:28:25;;;;;;;3.25;2.00;;;;;;;10.60;100.00;100151.52;2696656;86;21115;-89
2022/09/20 02:32:34;;;;;;;2.00;1.77;;;;;;;10.54;100.00;100155.06;2659992;86;21053;-88
2022/09/20 02:36:53;;;;;;;4.50;2.42;;;;;;;10.61;100.00;100158.05;2700141;87;21581;-90
2022/09/20 02:41:09;;;;;;;4.40;3.30;;;;;;;10.60;100.00;100165.64;2699236;86;21037;-90
2022/09/20 02:45:43;;;;;;;1.60;1.33;;;;;;;10.52;100.00;100168.97;2658447;87;21637;-89
2022/09/20 02:50:01;;;;;;;2.95;2.35;;;;;;;10.61;100.00;100172.68;2696574;87;21105;-89
2022/09/20 02:54:32;;;;;;;2.25;2.05;;;;;;;10.56;100.00;100178.38;2692585;86;21095;-90
2022/09/20 02:58:56;;;;;;;3.33;1.52;;;;;;;10.55;100.00;100186.47;2741029;85;21074;-90
2022/09/20 03:03:08;;;;;;;1.47;1.37;;;;;;;10.56;100.00;100186.83;2709554;85;21058;-90
2022/09/20 03:07:37;;;;;;;3.00;1.90;;;;;;;10.58;100.00;100190.20;2745846;83;21561;-89
2022/09/20 03:12:13;;;;;;;2.20;1.87;;;;;;;10.53;100.00;100194.59;2777709;83;21072;-90
2022/09/20 03:16:25;;;;;;;3.70;1.75;;;;;;;10.59;100.00;100198.53;2811347;82;21072;-86
2022/09/20 03:20:35;;;;;;;3.37;2.40;;;;;;;10.59;100.00;100196.37;2750217;85;21036;-89
2022/09/20 03:25:16;;;;;;;5.80;1.90;;;;;;;10.61;100.00;100196.63;2755645;85;21051;-91
2022/09/20 03:29:41;;;;;;;3.90;2.58;;;;;;;10.61;100.00;100189.97;2841596;82;20986;-89
2022/09/20 03:34:10;;;;;;;3.47;2.98;;;;;;;10.70;100.00;100194.97;2835635;82;21092;-91
2022/09/20 03:38:29;;;;;;;7.50;3.30;;;;;;;10.60;100.00;100200.73;2841593;82;21108;-91
2022/09/20 03:42:31;;;;;;;4.80;3.27;;;;;;;10.64;100.00;100203.48;2792631;82;21584;-89
2022/09/20 03:46:47;;;;;;;4.87;3.80;;;;;;;10.70;100.00;100197.63;2841721;82;21088;-89
2022/09/20 03:50:56;;;;;;;3.52;3.10;;;;;;;10.77;100.00;100195.31;2837981;82;21001;-90
2022/09/20 03:55:32;;;;;;;5.78;3.83;;;;;;;10.66;100.00;100197.55;2814319;82;20983;-89
2022/09/20 03:59:58;;;;;;;5.05;4.37;;;;;;;10.74;100.00;100196.90;2796740;82;20990;-89
2022/09/20 04:04:35;;;;;;;7.90;6.12;;;;;;;10.69;100.00;100196.81;2713828;86;21477;-89
2022/09/20 04:08:52;;;;;;;;;;;;;;;10.78;100.00;100196.99;2715649;87;21090;-90
2022/09/20 04:13:24;;;;;;;7.78;6.33;;;;;;;10.90;100.00;100198.62;2649118;88;20154;-90
2022/09/20 04:17:51;;;;;;;7.50;5.90;;;;;;;10.89;100.00;100200.94;2559951;92;21619;-89
2022/09/20 04:22:00;;;;;;;7.87;7.12;;;;;;;10.92;100.00;100205.99;2563059;92;21125;-91
2022/09/20 04:26:03;;;;;;;9.23;6.92;;;;;;;10.99;100.00;100201.83;2536646;92;21085;-89
2022/09/20 04:30:19;;;;;;;5.90;5.35;;;;;;;10.97;100.00;100213.09;2550316;92;21083;-88
2022/09/20 04:39:33;;;;;;;9.43;8.35;;;;;;;11.06;100.00;100209.30;2555652;89;21639;-89
2022/09/20 04:44:21;;;;;;;9.93;7.12;;;;;;;11.06;100.00;100218.12;2585008;89;21053;-86
2022/09/20 04:49:04;;;;;;;12.45;10.08;;;;;;;10.99;100.00;100225.78;2572814;90;21051;-88
2022/09/20 04:53:22;;;;;;;11.63;8.55;;;;;;;11.12;100.00;100226.94;2649557;86;21072;-88
2022/09/20 04:57:53;;;;;;;15.72;8.98;;;;;;;11.11;100.00;100231.05;2702305;85;21124;-88
2022/09/20 05:02:38;;;;;;;11.45;9.40;;;;;;;11.07;100.00;100236.28;2712325;85;21049;-90
2022/09/20 05:07:10;;;;;;;11.45;8.30;;;;;;;11.18;100.00;100241.52;2722388;85;21113;-89
2022/09/20 05:11:32;;;;;;;10.82;7.92;;;;;;;11.29;100.00;100245.45;2721266;84;21567;-89
2022/09/20 05:15:57;;;;;;;14.25;8.53;;;;;;;11.31;100.00;100243.14;2712542;86;21409;-88
2022/09/20 05:20:26;;;;;;;10.65;8.30;;;;;;;11.27;100.00;100248.73;2765171;83;21074;-89
2022/09/20 05:24:47;;;;;;;10.32;8.33;;;;;;;11.36;100.00;100247.11;2795965;84;21010;-88
2022/09/20 05:29:30;;;;;;;12.58;9.75;;;;;;;11.28;100.00;100254.89;2799462;84;20983;-88
2022/09/20 05:33:51;;;;;;;12.78;10.32;;;;;;;11.32;100.00;100264.33;2805071;83;21396;-88
2022/09/20 05:38:19;;;;;;;13.43;8.58;;;;;;;11.41;100.00;100260.03;2759447;84;21593;-87
2022/09/20 05:42:55;;;;;;;8.88;7.62;;;;;;;11.45;100.00;100271.25;2785851;84;21022;-88
2022/09/20 05:47:20;;;;;;;9.18;6.97;;;;;;;11.47;100.00;100270.15;2804814;82;21017;-89
2022/09/20 05:51:45;;;;;;;6.92;6.12;;;;;;;11.50;100.00;100269.88;2814636;83;21053;-89
2022/09/20 05:55:57;;;;;;;15.65;8.75;;;;;;;11.48;100.00;100283.82;2815990;83;21030;-88
2022/09/20 06:00:13;;;;;;;10.90;7.87;;;;;;;11.62;100.00;100283.95;2831268;82;21073;-89
2022/09/20 06:04:41;;;;;;;9.43;7.87;;;;;;;11.47;100.00;100294.13;2815577;82;21068;-89
2022/09/20 06:09:15;;;;;;;8.48;5.83;;;;;;;11.54;100.00;100291.27;2796181;82;21254;-88
2022/09/20 06:13:45;;;;;;;7.15;5.75;;;;;;;11.54;100.00;100297.94;2786781;84;21579;-88
2022/09/20 06:18:14;;;;;;;5.58;4.35;;;;;;;11.51;100.00;100296.88;2769635;84;21541;-90
2022/09/20 06:22:32;;;;;;;8.53;5.37;;;;;;;11.52;100.00;100296.40;2833820;80;21002;-89
2022/09/20 06:26:36;;;;;;;8.90;6.78;;;;;;;11.44;100.00;100298.38;2826747;83;21659;-91
2022/09/20 06:30:51;;;;;;;6.97;4.42;;;;;;;11.45;100.00;100298.73;2777557;83;21049;-90
2022/09/20 06:34:53;;;;;;;6.72;5.12;;;;;;;11.55;100.00;100307.61;2777778;83;21028;-90
2022/09/20 06:43:49;;;;;;;4.87;4.17;;;;;;;11.69;100.00;100298.45;2796677;82;21072;-92
2022/09/20 06:47:50;;;;;;;8.68;5.28;;;;;;;11.70;100.00;100309.94;2658054;86;21077;-92
2022/09/20 06:51:51;;;;;;;7.92;6.67;;;;;;;11.66;100.00;100313.85;2720206;86;21060;-90
2022/09/20 06:55:53;;;;;;;7.87;6.03;;;;;;;11.66;100.00;100316.02;2724119;86;21005;-91
2022/09/20 06:59:54;;;;;;;11.45;7.62;;;;;;;11.75;100.00;100320.20;2720881;86;21139;-88
2022/09/20 07:03:55;;;;;;;9.20;7.25;;;;;;;11.79;100.00;100315.83;2701255;87;21416;-90
2022/09/20 07:07:58;;;;;;;9.45;7.12;;;;;;;11.90;100.00;100321.55;2724011;86;21012;-91
2022/09/20 07:11:59;;;;;;;7.67;6.70;;;;;;;11.94;100.00;100319.44;2736007;87;21102;-92
2022/09/20 07:16:07;;;;;;;7.67;5.72;;;;;;;12.01;100.00;100321.98;2723236;86;21578;-92
2022/09/20 07:20:09;;;;;;;10.48;9.03;;;;;;;12.10;100.00;100327.82;2721498;87;21086;-90
2022/09/20 07:24:13;;;;;;;10.03;6.85;;;;;;;12.35;100.00;100332.81;2722349;87;21008;-90
2022/09/20 07:28:13;;;;;;;7.45;6.75;;;;;;;12.51;100.00;100331.81;2708599;86;21646;-89
2022/09/20 07:32:16;;;;;;;8.85;6.87;;;;;;;12.64;100.00;100338.22;2709487;87;21004;-86
2022/09/20 07:36:17;;;;;;;7.15;5.53;;;;;;;12.67;100.00;100344.61;2719156;87;21067;-88
2022/09/20 07:40:18;;;;;;;5.92;4.87;;;;;;;12.78;100.00;100344.14;2720754;87;21078;-90
2022/09/20 07:44:20;;;;;;;6.22;5.62;;;;;;;12.91;100.00;100346.54;2720505;87;21793;-91
2022/09/20 07:48:27;;;;;;;7.65;5.87;;;;;;;12.60;100.00;100358.16;2689597;87;21048;-92
2022/09/20 07:52:29;;;;;;;7.85;5.17;;;;;;;12.37;100.00;100360.20;2718739;87;21017;-91
2022/09/20 07:56:30;;;;;;;8.18;4.33;;;;;;;12.31;100.00;100362.91;2779207;84;21537;-89
2022/09/20 08:00:31;;;;;;;9.33;5.65;;;;;;;12.46;100.00;100369.20;2796073;84;21006;-90
2022/09/20 08:04:32;;;;;;;9.53;7.22;;;;;;;12.37;100.00;100373.03;2794027;85;21640;-91
2022/09/20 08:08:42;;;;;;;7.83;6.25;;;;;;;12.46;100.00;100371.88;2806079;83;21034;-91
2022/09/20 08:12:44;;;;;;;8.35;5.72;;;;;;;12.51;100.00;100380.31;2797222;84;21053;-92
2022/09/20 08:16:48;;;;;;;10.48;6.58;;;;;;;12.38;100.00;100380.55;2839448;82;21018;-90
2022/09/20 08:20:49;;;;;;;5.70;4.37;;;;;;;12.39;100.00;100376.44;2863232;83;21061;-92
2022/09/20 08:24:51;;;;;;;7.00;5.15;;;;;;;12.48;100.00;100383.25;2864150;81;21509;-91
2022/09/20 08:28:55;;;;;;;5.42;4.92;;;;;;;12.57;100.00;100377.09;2805231;83;21011;-90
2022/09/20 08:32:57;;;;;;;5.00;4.50;;;;;;;12.53;100.00;100376.53;2839482;82;21045;-92
2022/09/20 08:36:59;;;;;;;6.10;4.45;;;;;;;12.52;100.00;100379.33;2819640;82;21033;-92
2022/09/20 08:41:10;;;;;;;3.37;3.05;;;;;;;12.87;100.00;100382.00;2840495;83;21491;-90
2022/09/20 08:45:19;;;;;;;7.08;3.90;;;;;;;13.10;100.00;100383.08;2839561;82;20990;-91
2022/09/20 08:49:27;;;;;;;5.20;3.58;;;;;;;13.38;100.00;100385.90;2841820;82;21026;-91
2022/09/20 08:53:29;;;;;;;3.58;3.22;;;;;;;13.60;100.00;100389.28;2842107;82;21595;-91
2022/09/20 08:57:32;;;;;;;3.98;2.12;;;;;;;13.93;96.15;100388.41;2842780;82;21010;-92
2022/09/20 09:01:34;;;;;;;3.83;2.85;;;;;;;13.73;91.87;100389.80;2833452;82;20990;-91
2022/09/20 09:05:48;;;;;;;9.40;3.85;;;;;;;13.77;95.94;100396.56;2816418;82;21029;-92
2022/09/20 09:09:53;;;;;;;4.05;3.70;;;;;;;13.70;98.33;100399.45;2824467;82;21040;-90
2022/09/20 09:14:46;;;;;;;7.42;3.90;;;;;;;13.37;98.63;100395.73;2819115;82;21037;-88
2022/09/20 09:18:11;;;;;;;6.70;3.08;;;;;;;13.29;99.18;100399.61;2756908;84;21806;-90
2022/09/20 09:22:35;;;;;;;7.35;3.27;;;;;;;13.24;100.00;100404.03;2750981;84;21029;-92
2022/09/20 09:26:42;;;;;;;5.92;3.37;;;;;;;13.38;100.00;100398.75;2761484;84;21085;-91
2022/09/20 09:30:46;;;;;;;6.30;4.08;;;;;;;13.45;98.66;100396.39;2834193;82;21045;-89
2022/09/20 09:34:48;;;;;;;5.28;3.15;;;;;;;13.51;98.66;100402.49;2807602;82;21077;-89
2022/09/20 09:38:50;;;;;;;4.47;3.08;;;;;;;13.60;98.52;100394.62;2806556;82;21088;-89
2022/09/20 09:42:58;;;;;;;5.20;2.85;;;;;;;13.52;99.05;100400.17;2750580;84;21097;-88
2022/09/20 09:47:00;;;;;;;2.40;2.20;;;;;;;13.53;95.41;100399.19;2768927;84;21640;-88
2022/09/20 09:51:14;;;;;;;3.83;3.52;;;;;;;13.45;98.88;100400.39;2824966;82;21069;-88
2022/09/20 09:55:16;;;;;;;5.10;4.20;;;;;;;13.60;99.99;100401.30;2842100;82;21037;-89
2022/09/20 09:59:41;;;;;;;2.05;1.90;;;;;;;13.67;97.17;100412.63;2817239;82;21104;-90
2022/09/20 10:03:50;;;;;;;3.60;2.95;;;;;;;13.92;96.57;100413.47;2726886;86;21626;-88
2022/09/20 10:08:22;;;;;;;2.98;2.35;;;;;;;14.12;96.75;100409.75;2640776;88;21007;-88
2022/09/20 10:12:38;;;;;;;4.03;2.95;;;;;;;14.18;98.09;100419.53;2697816;87;21164;-89
2022/09/20 10:17:18;;;;;;;4.83;3.02;;;;;;;14.00;95.71;100426.47;2655987;88;21582;-89
2022/09/20 10:21:50;;;;;;;4.28;3.02;;;;;;;14.00;100.00;100421.11;2620061;88;21185;-88
2022/09/20 10:26:06;;;;;;;2.17;1.82;;;;;;;14.05;100.00;100420.69;2659380;88;21123;-88
2022/09/20 10:30:24;;;;;;;2.27;2.05;;;;;;;14.09;96.41;100419.41;2633750;89;21043;-88
2022/09/20 10:35:00;;;;;;;4.15;2.52;;;;;;;14.26;95.73;100423.17;2629699;89;21088;-88
2022/09/20 10:39:19;;;;;;;3.33;2.70;;;;;;;14.90;92.95;100406.36;2677761;85;21141;-89
2022/09/20 10:43:40;;;;;;;3.20;2.08;;;;;;;15.06;94.57;100414.23;2740379;86;21027;-87
2022/09/20 10:48:18;;;;;;;3.83;2.35;;;;;;;15.07;92.43;100404.72;2736616;85;21575;-87
2022/09/20 10:52:31;;;;;;;5.83;2.55;;;;;;;14.94;91.17;100415.80;2653887;87;21721;-87
2022/09/20 10:56:39;;;;;;;2.27;1.70;;;;;;;14.99;90.28;100423.36;2669420;88;21065;-87
2022/09/20 11:00:56;;;;;;;3.72;2.75;;;;;;;15.02;89.45;100421.72;2673724;87;21138;-87
2022/09/20 11:05:21;;;;;;;2.77;2.08;;;;;;;15.12;94.06;100429.69;2683531;85;21072;-87
2022/09/20 11:09:27;;;;;;;3.45;1.55;;;;;;;15.16;89.02;100417.69;2768791;84;21073;-87
2022/09/20 11:13:46;;;;;;;2.62;2.37;;;;;;;15.41;90.03;100407.19;2828935;82;21041;-88
2022/09/20 11:18:14;;;;;;;5.55;2.12;;;;;;;15.66;87.22;100410.05;2758000;84;21692;-86
2022/09/20 11:22:33;;;;;;;2.22;1.75;;;;;;;15.87;88.12;100410.20;2781614;84;21025;-86
2022/09/20 11:26:43;;;;;;;4.17;2.70;;;;;;;16.11;88.68;100410.89;2819175;82;21069;-85
2022/09/20 11:31:01;;;;;;;2.72;1.70;;;;;;;16.08;84.13;100406.67;2804479;82;21025;-88
2022/09/20 11:35:20;;;;;;;2.33;1.80;;;;;;;16.15;86.58;100418.13;2823589;82;20994;-88
2022/09/20 11:39:33;;;;;;;2.10;1.72;;;;;;;16.07;86.97;100414.90;2826868;82;21073;-87
2022/09/20 11:43:39;;;;;;;1.72;1.52;;;;;;;16.25;84.54;100413.47;2798538;83;21029;-85
2022/09/20 11:47:47;;;;;;;3.83;2.42;;;;;;;16.39;82.64;100411.53;2745498;86;21019;-88
2022/09/20 11:52:03;;;;;;;4.25;2.08;;;;;;;16.62;82.23;100414.98;2749876;86;21176;-87
2022/09/20 11:56:20;;;;;;;1.47;1.00;;;;;;;16.33;86.40;100426.95;2764276;85;21002;-87
2022/09/20 12:00:29;;;;;;;3.98;1.55;;;;;;;15.89;82.82;100421.64;2760719;85;21562;-85
2022/09/20 12:04:34;;;;;;;1.70;1.05;;;;;;;15.72;83.89;100414.78;2742215;85;20999;-87
2022/09/20 12:08:39;;;;;;;1.42;0.90;;;;;;;15.71;81.89;100418.47;2756982;84;22028;-87
2022/09/20 12:12:48;;;;;;;1.37;1.20;;;;;;;15.81;81.21;100418.37;2755572;84;21018;-87
2022/09/20 12:16:49;;;;;;;1.05;0.95;;;;;;;16.04;82.85;100419.24;2746974;84;21023;-88
2022/09/20 12:21:07;;;;;;;1.37;0.68;;;;;;;16.10;84.82;100419.42;2711532;87;21019;-88
2022/09/20 12:25:38;;;;;;;1.47;0.95;;;;;;;16.05;78.46;100413.70;2724208;86;21059;-87
2022/09/20 12:30:08;;;;;;;3.75;1.75;;;;;;;16.17;82.71;100415.61;2734672;86;21047;-87
2022/09/20 12:34:21;;;;;;;2.22;1.62;;;;;;;16.18;81.94;100419.15;2715719;87;21055;-87
2022/09/20 12:38:30;;;;;;;0.95;0.85;;;;;;;16.22;82.43;100416.00;2716231;87;21103;-87
2022/09/20 12:42:33;;;;;;;1.35;1.17;;;;;;;16.32;83.00;100414.53;2726441;85;20982;-87
2022/09/20 12:46:46;;;;;;;1.20;0.82;;;;;;;16.34;80.58;100411.67;2724933;85;21027;-85
2022/09/20 12:55:55;;;;;;;4.97;1.07;;;;;;;16.49;80.33;100409.21;2695658;86;21068;-87
2022/09/20 13:00:00;;;;;;;1.50;1.00;;;;;;;16.66;80.15;100408.27;2684965;87;21167;-86
2022/09/20 13:04:54;;;;;;;1.42;0.70;;;;;;;16.79;79.33;100408.31;2699460;85;21701;-86
2022/09/20 13:09:06;;;;;;;2.35;1.25;;;;;;;16.79;78.37;100407.80;2693072;86;21685;-86
2022/09/20 13:13:37;;;;;;;1.20;0.85;;;;;;;16.86;76.45;100409.34;2721637;86;21036;-86
2022/09/20 13:17:41;;;;;;;0.62;0.60;;;;;;;17.06;78.92;100409.07;2774369;83;21104;-87
2022/09/20 13:22:10;;;;;;;2.15;0.68;;;;;;;17.03;74.78;100414.78;2801635;85;21009;-87
2022/09/20 13:26:13;;;;;;;2.77;0.93;;;;;;;17.08;73.77;100417.31;2802633;84;20970;-87
2022/09/20 13:30:34;;;;;;;1.12;0.57;;;;;;;17.08;72.58;100411.94;2804543;83;21087;-86
2022/09/20 13:34:32;;;;;;;1.55;0.82;;;;;;;17.03;73.59;100418.33;2813183;83;21002;-88
2022/09/20 13:38:37;;;;;;;2.08;0.80;;;;;;;16.80;73.69;100416.72;2813058;83;21164;-87
2022/09/20 13:42:38;;;;;;;2.17;0.70;;;;;;;16.56;72.71;100425.86;2797515;84;20989;-87
2022/09/20 13:46:43;;;;;;;2.58;0.90;;;;;;;16.30;72.73;100428.59;2724394;85;21113;-87
2022/09/20 13:50:44;;;;;;;0.97;0.63;;;;;;;16.07;73.87;100433.16;2779518;84;21522;-87
2022/09/20 13:54:47;;;;;;;0.72;0.70;;;;;;;15.94;75.29;100430.08;2886753;82;20970;-87
2022/09/20 13:58:50;;;;;;;2.67;1.10;;;;;;;15.67;81.24;100431.84;2868285;81;21058;-86
2022/09/20 14:02:56;;;;;;;1.92;0.98;;;;;;;15.55;84.40;100434.80;2852764;82;21006;-87
2022/09/20 14:06:58;;;;;;;;;;;;;;;15.42;86.76;100431.66;2833555;81;21029;-86
2022/09/20 14:11:26;;;;;;;2.05;1.10;;;;;;;15.20;86.88;100424.42;2786279;84;20156;-85
2022/09/20 14:15:38;;;;;;;1.10;0.70;;;;;;;15.08;83.48;100422.95;2797987;84;21034;-87
2022/09/20 14:19:41;;;;;;;2.30;0.80;;;;;;;15.08;87.81;100422.47;2765777;85;21071;-87
2022/09/20 14:23:57;;;;;;;2.62;1.12;;;;;;;15.17;87.44;100424.73;2776991;85;21025;-87
2022/09/20 14:28:17;;;;;;;3.10;1.30;;;;;;;15.29;85.95;100422.66;2780639;84;21054;-87
2022/09/20 14:32:33;;;;;;;1.87;0.72;;;;;;;15.34;86.80;100424.89;2778144;83;21694;-86
2022/09/20 14:36:34;;;;;;;1.85;0.80;;;;;;;15.42;87.16;100420.94;2781236;83;21017;-87
2022/09/20 14:40:46;;;;;;;2.92;0.70;;;;;;;15.54;87.87;100426.89;2787247;84;21514;-87
2022/09/20 14:44:50;;;;;;;2.20;0.50;;;;;;;15.58;88.30;100428.77;2776561;85;21033;-87
2022/09/20 14:48:52;;;;;;;3.30;1.05;;;;;;;15.63;86.63;100437.19;2801241;83;21001;-88
2022/09/20 14:53:11;;;;;;;0.80;0.50;;;;;;;15.59;86.99;100436.64;2782169;84;21061;-87
2022/09/20 14:57:13;;;;;;;1.95;0.93;;;;;;;15.63;87.60;100439.86;2795852;84;21034;-84
2022/09/20 15:01:23;;;;;;;1.60;0.95;;;;;;;15.88;86.27;100438.22;2783107;83;21412;-84
2022/09/20 15:05:26;;;;;;;2.12;1.00;;;;;;;16.26;85.26;100436.63;2803693;83;21014;-87
2022/09/20 15:09:29;;;;;;;1.75;1.00;;;;;;;16.63;83.19;100442.69;2748950;84;20998;-87
2022/09/20 15:13:30;;;;;;;1.45;1.05;;;;;;;16.85;78.65;100430.48;2738594;85;21542;-86
2022/09/20 15:17:31;;;;;;;0.68;0.40;;;;;;;16.90;69.67;100428.17;2767013;84;21047;-86
2022/09/20 15:21:32;;;;;;;1.27;0.33;;;;;;;16.82;74.56;100439.73;2798420;83;21520;-86
2022/09/20 15:25:33;;;;;;;1.10;0.42;;;;;;;16.70;75.09;100431.62;2770061;83;20985;-86
2022/09/20 15:29:34;;;;;;;0.40;0.30;;;;;;;16.56;77.53;100431.75;2799020;83;21505;-85
2022/09/20 15:33:35;;;;;;;0.70;0.30;;;;;;;16.15;78.06;100431.55;2777462;83;21080;-86
2022/09/20 15:37:37;;;;;;;2.02;0.90;;;;;;;16.00;79.46;100433.47;2776425;85;21502;-86
2022/09/20 15:41:39;;;;;;;1.40;0.53;;;;;;;15.85;80.54;100429.15;2780891;85;21073;-86
2022/09/20 15:45:51;;;;;;;0.53;0.30;;;;;;;15.73;78.05;100423.20;2775398;83;20979;-86
2022/09/20 15:49:52;;;;;;;0.40;0.40;;;;;;;15.40;77.25;100430.97;2756434;84;21110;-87
2022/09/20 15:53:57;;;;;;;2.40;1.07;;;;;;;15.27;76.49;100436.20;2815172;82;21061;-86
2022/09/20 15:57:59;;;;;;;1.10;0.90;;;;;;;15.23;78.27;100450.91;2837101;82;20978;-86
2022/09/20 16:02:01;;;;;;;1.80;1.10;;;;;;;14.96;76.57;100459.83;2858893;81;21052;-86
2022/09/20 16:06:06;;;;;;;2.02;1.25;;;;;;;14.93;79.15;100474.87;2857325;82;21076;-86
2022/09/20 16:10:08;;;;;;;1.02;0.53;;;;;;;14.92;79.78;100485.23;2829722;83;21842;-86
2022/09/20 16:14:09;;;;;;;2.08;1.45;;;;;;;14.77;80.58;100487.06;2854533;81;21009;-86
2022/09/20 16:22:33;;;;;;;4.00;1.87;;;;;;;14.58;82.03;100508.05;2818617;82;21053;-85
2022/09/20 16:26:34;;;;;;;1.70;0.82;;;;;;;14.66;82.29;100515.35;2818876;82;21031;-85
2022/09/20 16:30:35;;;;;;;2.05;0.80;;;;;;;14.61;80.96;100524.30;2831643;82;21093;-86
2022/09/20 16:34:37;;;;;;;2.77;1.20;;;;;;;14.59;82.83;100537.84;2818491;83;21045;-87
2022/09/20 16:38:41;;;;;;;1.62;0.90;;;;;;;14.61;82.86;100537.20;2846557;82;20982;-87
2022/09/20 16:42:45;;;;;;;2.70;0.90;;;;;;;14.67;83.29;100548.66;2835748;82;21037;-87
2022/09/20 16:46:46;;;;;;;1.02;0.45;;;;;;;14.63;83.82;100555.30;2801647;82;21558;-88
2022/09/20 16:50:54;;;;;;;3.25;1.22;;;;;;;14.54;83.47;100550.80;2811343;83;20998;-88
2022/09/20 16:54:55;;;;;;;1.82;1.30;;;;;;;14.48;84.62;100560.27;2842784;82;20981;-87
2022/09/20 16:58:57;;;;;;;5.50;1.27;;;;;;;14.39;83.92;100566.48;2821005;82;20993;-88
2022/09/20 17:02:58;;;;;;;3.27;2.00;;;;;;;14.21;85.04;100568.55;2810569;83;21057;-88
2022/09/20 17:06:59;;;;;;;3.30;2.27;;;;;;;14.22;85.32;100581.45;2815556;82;20978;-88
2022/09/20 17:11:01;;;;;;;2.25;0.95;;;;;;;14.09;85.81;100580.41;2842115;82;20998;-88
2022/09/20 17:15:03;;;;;;;1.95;1.47;;;;;;;13.94;87.96;100583.49;2831280;80;21478;-86
2022/09/20 17:19:13;;;;;;;1.25;0.80;;;;;;;13.78;89.26;100592.08;2820465;83;21109;-86
2022/09/20 17:23:15;;;;;;;1.37;1.22;;;;;;;13.63;89.62;100595.63;2816508;83;21065;-82
2022/09/20 17:27:16;;;;;;;1.32;0.93;;;;;;;13.65;91.48;100607.02;2813059;83;21049;-84
2022/09/20 17:31:22;;;;;;;4.60;1.57;;;;;;;13.46;95.79;100609.66;2813576;84;21010;-85
2022/09/20 17:35:23;;;;;;;;;;;;;;;13.27;97.96;100608.11;2818039;84;21081;-85
2022/09/20 17:39:25;;;;;;;4.78;1.77;;;;;;;13.09;98.35;100616.40;2788270;83;20464;-85
2022/09/20 17:43:28;;;;;;;2.20;1.57;;;;;;;12.94;99.85;100611.91;2814582;83;21038;-86
2022/09/20 17:47:30;;;;;;;3.75;1.98;;;;;;;12.85;98.84;100606.87;2810904;83;21058;-85
2022/09/20 17:51:38;;;;;;;2.75;1.62;;;;;;;12.74;100.00;100624.30;2804214;83;21109;-86
2022/09/20 17:55:39;;;;;;;4.17;1.40;;;;;;;12.69;100.00;100630.88;2798102;83;20971;-84
2022/09/20 17:59:41;;;;;;;3.27;2.17;;;;;;;12.61;100.00;100628.51;2805612;83;21507;-85
2022/09/20 18:03:45;;;;;;;4.85;2.05;;;;;;;12.59;100.00;100632.66;2756911;83;21022;-85
2022/09/20 18:07:46;;;;;;;5.62;2.87;;;;;;;12.45;100.00;100636.98;2796283;83;21017;-85
2022/09/20 18:11:51;;;;;;;4.30;2.15;;;;;;;12.42;100.00;100638.94;2780643;83;21060;-84
2022/09/20 18:15:53;;;;;;;3.20;1.95;;;;;;;12.39;100.00;100649.00;2782439;83;21073;-85
2022/09/20 18:19:54;;;;;;;5.30;2.35;;;;;;;12.27;100.00;100653.05;2842869;82;20962;-85
2022/09/20 18:23:56;;;;;;;5.65;3.58;;;;;;;12.34;100.00;100648.05;2842478;82;21021;-84
2022/09/20 18:27:57;;;;;;;6.12;2.75;;;;;;;12.34;100.00;100659.23;2784770;82;21401;-85
2022/09/20 18:31:59;;;;;;;3.30;2.02;;;;;;;12.33;100.00;100666.36;2819920;82;21045;-86
2022/09/20 18:36:05;;;;;;;3.37;1.82;;;;;;;12.31;100.00;100664.82;2835597;82;21017;-86
2022/09/20 18:40:07;;;;;;;6.75;2.77;;;;;;;12.16;100.00;100676.25;2804493;83;21502;-85
2022/09/20 18:44:13;;;;;;;4.90;3.05;;;;;;;12.17;100.00;100684.14;2809056;82;21040;-86
2022/09/20 18:48:13;;;;;;;4.15;3.20;;;;;;;12.16;100.00;100693.11;2841249;83;21635;-83
2022/09/20 18:52:16;;;;;;;3.42;2.85;;;;;;;12.07;100.00;100693.38;2744321;82;21025;-82
2022/09/20 18:56:29;;;;;;;2.95;2.25;;;;;;;12.06;100.00;100701.49;2808512;82;21072;-84
2022/09/20 19:00:32;;;;;;;2.90;2.60;;;;;;;11.99;100.00;100707.80;2842209;82;21077;-84
2022/09/20 19:04:59;;;;;;;3.65;2.27;;;;;;;11.93;100.00;100713.14;2842631;82;21014;-84
2022/09/20 19:09:06;;;;;;;3.37;2.08;;;;;;;11.83;100.00;100711.70;2813255;82;21018;-84
2022/09/20 19:13:37;;;;;;;5.87;3.67;;;;;;;11.76;100.00;100713.15;2835904;83;21556;-84
2022/09/20 19:18:16;;;;;;;6.80;3.52;;;;;;;11.73;100.00;100720.56;2779473;82;21068;-84
2022/09/20 19:22:36;;;;;;;5.05;2.55;;;;;;;11.68;100.00;100723.59;2726597;85;21049;-83
2022/09/20 19:26:39;;;;;;;2.77;2.47;;;;;;;11.71;100.00;100722.00;2665275;86;21063;-84
2022/09/20 19:30:41;;;;;;;3.87;2.72;;;;;;;11.71;100.00;100723.34;2667143;87;21118;-84
2022/09/20 19:34:44;;;;;;;3.47;2.58;;;;;;;11.59;100.00;100725.16;2645265;88;21046;-84
2022/09/20 19:39:30;;;;;;;5.10;2.92;;;;;;;11.45;100.00;100724.06;2723424;84;21033;-84
2022/09/20 19:44:13;;;;;;;3.58;2.37;;;;;;;11.44;100.00;100727.23;2592625;89;21018;-83